Weaverham, United Kingdom
Current Conditions -  °F | °C
As of 2:20 PM on Thursday 27 Nov 2014 (Local Time) from EGGP Reporting Station
Broken Clouds Broken Clouds  
Wind Chill: 43°   Ceiling: 2300
Heat Index: 46°   Visibility: 5mi
Dew Point: 45°   Wind: 7mph
Humidity: 93%   Direction: 160°SSE
Pressure: 29.56"   Gusts: NA
Location:  53.26°N, 2.57°W
Report Text: EGGP 271420Z 16006KT 8000 FEW012 BKN023 08/07 Q1001
Loading
Personal Weather Stations






























Interactive Weather Map New forecast layout! Learn more

10-Day Weather Forecast

Advertisements
Track Severe Weather on mobile